sensor_id;sensor_type;location;lat;lon;timestamp;pressure;altitude;pressure_sealevel;temperature;humidity
77869;BME280;67231;59.144;37.934;2023-07-20T00:00:04;98145.56;;;14.58;80.71
77869;BME280;67231;59.144;37.934;2023-07-20T00:02:40;98155.44;;;14.57;81.05
77869;BME280;67231;59.144;37.934;2023-07-20T00:05:06;98160.78;;;14.57;80.77
77869;BME280;67231;59.144;37.934;2023-07-20T00:07:33;98144.75;;;14.57;80.69
77869;BME280;67231;59.144;37.934;2023-07-20T00:09:59;98152.56;;;14.59;80.81
77869;BME280;67231;59.144;37.934;2023-07-20T00:12:26;98164.66;;;14.62;80.73
77869;BME280;67231;59.144;37.934;2023-07-20T00:14:52;98160.09;;;14.62;80.72
77869;BME280;67231;59.144;37.934;2023-07-20T00:17:19;98151.88;;;14.64;81.31
77869;BME280;67231;59.144;37.934;2023-07-20T00:19:46;98151.66;;;14.65;81.04
77869;BME280;67231;59.144;37.934;2023-07-20T00:22:13;98148.31;;;14.70;80.71
77869;BME280;67231;59.144;37.934;2023-07-20T00:24:40;98161.44;;;14.71;80.68
77869;BME280;67231;59.144;37.934;2023-07-20T00:27:06;98154.84;;;14.74;80.45
77869;BME280;67231;59.144;37.934;2023-07-20T00:29:32;98157.06;;;14.77;80.35
77869;BME280;67231;59.144;37.934;2023-07-20T00:31:59;98154.41;;;14.77;80.52
77869;BME280;67231;59.144;37.934;2023-07-20T00:34:25;98156.22;;;14.77;80.49
77869;BME280;67231;59.144;37.934;2023-07-20T00:36:54;98165.31;;;14.75;80.92
77869;BME280;67231;59.144;37.934;2023-07-20T00:39:20;98149.50;;;14.74;80.37
77869;BME280;67231;59.144;37.934;2023-07-20T00:41:47;98160.63;;;14.71;80.61
77869;BME280;67231;59.144;37.934;2023-07-20T00:44:13;98152.63;;;14.71;80.31
77869;BME280;67231;59.144;37.934;2023-07-20T00:46:40;98153.06;;;14.68;80.77
77869;BME280;67231;59.144;37.934;2023-07-20T00:49:08;98161.88;;;14.68;80.56
77869;BME280;67231;59.144;37.934;2023-07-20T00:51:34;98152.50;;;14.66;80.81
77869;BME280;67231;59.144;37.934;2023-07-20T00:54:02;98154.56;;;14.64;80.68
77869;BME280;67231;59.144;37.934;2023-07-20T00:56:29;98154.19;;;14.60;80.92
77869;BME280;67231;59.144;37.934;2023-07-20T00:58:56;98156.84;;;14.60;80.55
77869;BME280;67231;59.144;37.934;2023-07-20T01:01:22;98167.72;;;14.58;80.82
77869;BME280;67231;59.144;37.934;2023-07-20T01:03:49;98158.09;;;14.57;80.83
77869;BME280;67231;59.144;37.934;2023-07-20T01:09:19;98171.06;;;14.54;81.04
77869;BME280;67231;59.144;37.934;2023-07-20T01:12:13;98176.41;;;14.54;81.19
77869;BME280;67231;59.144;37.934;2023-07-20T01:14:45;98173.72;;;14.54;81.21
77869;BME280;67231;59.144;37.934;2023-07-20T01:17:11;98173.72;;;14.54;80.83
77869;BME280;67231;59.144;37.934;2023-07-20T01:19:38;98178.84;;;14.55;80.94
77869;BME280;67231;59.144;37.934;2023-07-20T01:22:55;98177.25;;;14.54;81.11
77869;BME280;67231;59.144;37.934;2023-07-20T01:25:33;98178.25;;;14.53;80.92
77869;BME280;67231;59.144;37.934;2023-07-20T01:30:50;98190.38;;;14.56;81.60
77869;BME280;67231;59.144;37.934;2023-07-20T01:33:19;98194.63;;;14.57;81.32
77869;BME280;67231;59.144;37.934;2023-07-20T01:35:54;98191.97;;;14.57;81.26
77869;BME280;67231;59.144;37.934;2023-07-20T01:38:22;98195.69;;;14.56;81.31
77869;BME280;67231;59.144;37.934;2023-07-20T01:40:51;98185.25;;;14.54;81.24
77869;BME280;67231;59.144;37.934;2023-07-20T01:43:18;98190.59;;;14.54;81.62
77869;BME280;67231;59.144;37.934;2023-07-20T01:45:45;98195.69;;;14.56;81.91
77869;BME280;67231;59.144;37.934;2023-07-20T01:48:13;98196.50;;;14.56;81.95
77869;BME280;67231;59.144;37.934;2023-07-20T01:50:42;98197.31;;;14.57;81.57
77869;BME280;67231;59.144;37.934;2023-07-20T01:53:09;98199.56;;;14.60;82.12
77869;BME280;67231;59.144;37.934;2023-07-20T01:55:36;98195.66;;;14.63;81.96
77869;BME280;67231;59.144;37.934;2023-07-20T01:58:03;98192.75;;;14.64;82.16
77869;BME280;67231;59.144;37.934;2023-07-20T02:00:30;98196.22;;;14.65;82.02
77869;BME280;67231;59.144;37.934;2023-07-20T02:02:57;98197.88;;;14.66;82.15
77869;BME280;67231;59.144;37.934;2023-07-20T02:05:23;98206.69;;;14.66;82.45
77869;BME280;67231;59.144;37.934;2023-07-20T02:07:50;98197.03;;;14.65;82.62
77869;BME280;67231;59.144;37.934;2023-07-20T02:10:20;98197.25;;;14.64;82.62
77869;BME280;67231;59.144;37.934;2023-07-20T02:12:47;98201.78;;;14.63;82.57
77869;BME280;67231;59.144;37.934;2023-07-20T02:15:15;98205.50;;;14.62;82.90
77869;BME280;67231;59.144;37.934;2023-07-20T02:17:43;98201.22;;;14.61;82.53
77869;BME280;67231;59.144;37.934;2023-07-20T02:20:29;98203.06;;;14.61;82.85
77869;BME280;67231;59.144;37.934;2023-07-20T02:22:56;98213.75;;;14.61;82.71
77869;BME280;67231;59.144;37.934;2023-07-20T02:25:22;98210.44;;;14.58;82.71
77869;BME280;67231;59.144;37.934;2023-07-20T02:27:49;98207.56;;;14.60;82.88
77869;BME280;67231;59.144;37.934;2023-07-20T02:30:15;98216.16;;;14.62;83.04
77869;BME280;67231;59.144;37.934;2023-07-20T02:32:43;98208.41;;;14.61;82.48
77869;BME280;67231;59.144;37.934;2023-07-20T02:35:15;98204.69;;;14.62;82.54
77869;BME280;67231;59.144;37.934;2023-07-20T02:37:45;98201.00;;;14.63;82.80
77869;BME280;67231;59.144;37.934;2023-07-20T02:40:12;98206.31;;;14.63;82.81
77869;BME280;67231;59.144;37.934;2023-07-20T02:42:39;98202.59;;;14.64;83.02
77869;BME280;67231;59.144;37.934;2023-07-20T02:45:06;98215.34;;;14.62;82.80
77869;BME280;67231;59.144;37.934;2023-07-20T02:47:35;98220.31;;;14.58;83.15
77869;BME280;67231;59.144;37.934;2023-07-20T02:50:03;98209.50;;;14.53;83.27
77869;BME280;67231;59.144;37.934;2023-07-20T02:52:32;98231.50;;;14.48;83.17
77869;BME280;67231;59.144;37.934;2023-07-20T02:54:58;98231.13;;;14.45;83.64
77869;BME280;67231;59.144;37.934;2023-07-20T02:57:26;98234.47;;;14.40;83.49
77869;BME280;67231;59.144;37.934;2023-07-20T02:59:53;98231.41;;;14.36;83.90
77869;BME280;67231;59.144;37.934;2023-07-20T03:02:20;98240.47;;;14.35;83.47
77869;BME280;67231;59.144;37.934;2023-07-20T03:04:46;98237.78;;;14.35;84.17
77869;BME280;67231;59.144;37.934;2023-07-20T03:07:13;98232.22;;;14.37;84.01
77869;BME280;67231;59.144;37.934;2023-07-20T03:09:39;98231.19;;;14.38;83.91
77869;BME280;67231;59.144;37.934;2023-07-20T03:12:07;98245.13;;;14.40;84.13
77869;BME280;67231;59.144;37.934;2023-07-20T03:14:34;98239.34;;;14.43;84.16
77869;BME280;67231;59.144;37.934;2023-07-20T03:17:01;98244.25;;;14.46;84.14
77869;BME280;67231;59.144;37.934;2023-07-20T03:19:28;98241.72;;;14.51;84.07
77869;BME280;67231;59.144;37.934;2023-07-20T03:21:54;98245.00;;;14.53;83.72
77869;BME280;67231;59.144;37.934;2023-07-20T03:24:21;98246.63;;;14.54;83.96
77869;BME280;67231;59.144;37.934;2023-07-20T03:26:47;98255.22;;;14.56;83.78
77869;BME280;67231;59.144;37.934;2023-07-20T03:29:14;98241.66;;;14.58;83.58
77869;BME280;67231;59.144;37.934;2023-07-20T03:31:44;98253.53;;;14.62;84.16
77869;BME280;67231;59.144;37.934;2023-07-20T03:34:11;98232.56;;;14.66;83.81
77869;BME280;67231;59.144;37.934;2023-07-20T03:36:37;98252.00;;;14.73;83.89
77869;BME280;67231;59.144;37.934;2023-07-20T03:39:04;98255.03;;;14.77;83.92
77869;BME280;67231;59.144;37.934;2023-07-20T03:41:30;98244.72;;;14.80;83.41
77869;BME280;67231;59.144;37.934;2023-07-20T03:43:57;98255.34;;;14.87;83.61
77869;BME280;67231;59.144;37.934;2023-07-20T03:46:23;98257.47;;;14.97;83.22
77869;BME280;67231;59.144;37.934;2023-07-20T03:48:50;98249.94;;;15.05;82.70
77869;BME280;67231;59.144;37.934;2023-07-20T03:51:17;98250.13;;;15.10;83.04
77869;BME280;67231;59.144;37.934;2023-07-20T03:53:43;98240.94;;;15.18;83.09
77869;BME280;67231;59.144;37.934;2023-07-20T03:56:10;98247.84;;;15.26;82.80
77869;BME280;67231;59.144;37.934;2023-07-20T03:58:36;98247.75;;;15.33;82.36
77869;BME280;67231;59.144;37.934;2023-07-20T04:01:03;98230.22;;;15.37;82.59
77869;BME280;67231;59.144;37.934;2023-07-20T04:03:29;98240.38;;;15.46;82.08
77869;BME280;67231;59.144;37.934;2023-07-20T04:05:56;98237.94;;;15.57;81.95
77869;BME280;67231;59.144;37.934;2023-07-20T04:08:25;98232.41;;;15.70;81.53
77869;BME280;67231;59.144;37.934;2023-07-20T04:10:52;98232.13;;;15.90;81.19
77869;BME280;67231;59.144;37.934;2023-07-20T04:13:18;98246.56;;;16.01;81.13
77869;BME280;67231;59.144;37.934;2023-07-20T04:15:45;98249.91;;;16.08;80.44
77869;BME280;67231;59.144;37.934;2023-07-20T04:18:14;98245.97;;;16.11;80.00
77869;BME280;67231;59.144;37.934;2023-07-20T04:20:40;98244.72;;;16.13;79.94
77869;BME280;67231;59.144;37.934;2023-07-20T04:23:08;98239.59;;;16.12;80.04
77869;BME280;67231;59.144;37.934;2023-07-20T04:25:34;98262.97;;;16.16;79.99
77869;BME280;67231;59.144;37.934;2023-07-20T04:28:06;98255.19;;;16.15;79.64
77869;BME280;67231;59.144;37.934;2023-07-20T04:30:38;98251.91;;;16.13;79.74
77869;BME280;67231;59.144;37.934;2023-07-20T04:33:07;98258.91;;;16.14;79.78
77869;BME280;67231;59.144;37.934;2023-07-20T04:35:48;98258.66;;;16.15;79.75
77869;BME280;67231;59.144;37.934;2023-07-20T04:38:17;98263.06;;;16.10;79.81
77869;BME280;67231;59.144;37.934;2023-07-20T04:40:47;98271.31;;;16.08;79.71
77869;BME280;67231;59.144;37.934;2023-07-20T04:43:14;98275.75;;;16.02;80.05
77869;BME280;67231;59.144;37.934;2023-07-20T04:45:41;98279.22;;;16.03;80.08
77869;BME280;67231;59.144;37.934;2023-07-20T04:48:15;98286.78;;;15.94;80.49
77869;BME280;67231;59.144;37.934;2023-07-20T04:50:49;98280.03;;;15.92;80.36
77869;BME280;67231;59.144;37.934;2023-07-20T04:53:15;98278.28;;;15.86;80.71
77869;BME280;67231;59.144;37.934;2023-07-20T04:55:49;98282.91;;;15.78;80.44
77869;BME280;67231;59.144;37.934;2023-07-20T04:58:18;98275.56;;;15.74;80.43
77869;BME280;67231;59.144;37.934;2023-07-20T05:00:45;98279.47;;;15.71;80.25
77869;BME280;67231;59.144;37.934;2023-07-20T05:03:12;98272.75;;;15.69;80.58
77869;BME280;67231;59.144;37.934;2023-07-20T05:05:39;98275.66;;;15.67;80.37
77869;BME280;67231;59.144;37.934;2023-07-20T05:08:05;98272.31;;;15.72;80.64
77869;BME280;67231;59.144;37.934;2023-07-20T05:10:32;98289.06;;;15.79;80.35
77869;BME280;67231;59.144;37.934;2023-07-20T05:12:59;98277.25;;;15.87;79.52
77869;BME280;67231;59.144;37.934;2023-07-20T05:15:26;98282.16;;;16.01;79.69
77869;BME280;67231;59.144;37.934;2023-07-20T05:17:54;98276.22;;;16.11;79.32
77869;BME280;67231;59.144;37.934;2023-07-20T05:20:20;98282.63;;;16.22;79.55
77869;BME280;67231;59.144;37.934;2023-07-20T05:22:50;98282.75;;;16.27;79.18
77869;BME280;67231;59.144;37.934;2023-07-20T05:25:16;98275.56;;;16.28;79.07
77869;BME280;67231;59.144;37.934;2023-07-20T05:27:44;98283.81;;;16.26;78.58
77869;BME280;67231;59.144;37.934;2023-07-20T05:30:12;98281.38;;;16.25;78.90
77869;BME280;67231;59.144;37.934;2023-07-20T05:32:39;98282.41;;;16.24;78.66
77869;BME280;67231;59.144;37.934;2023-07-20T05:35:06;98280.06;;;16.27;78.45
77869;BME280;67231;59.144;37.934;2023-07-20T05:37:33;98277.03;;;16.35;78.67
77869;BME280;67231;59.144;37.934;2023-07-20T05:40:03;98305.78;;;16.40;78.33
77869;BME280;67231;59.144;37.934;2023-07-20T05:42:31;98277.50;;;16.32;77.86
77869;BME280;67231;59.144;37.934;2023-07-20T05:44:57;98282.84;;;16.32;78.12
77869;BME280;67231;59.144;37.934;2023-07-20T05:47:24;98272.41;;;16.31;77.50
77869;BME280;67231;59.144;37.934;2023-07-20T05:49:51;98277.50;;;16.32;78.32
77869;BME280;67231;59.144;37.934;2023-07-20T05:52:19;98274.59;;;16.34;77.89
77869;BME280;67231;59.144;37.934;2023-07-20T05:54:46;98285.44;;;16.39;77.95
77869;BME280;67231;59.144;37.934;2023-07-20T05:57:12;98271.22;;;16.38;77.68
77869;BME280;67231;59.144;37.934;2023-07-20T05:59:39;98264.47;;;16.48;77.10
77869;BME280;67231;59.144;37.934;2023-07-20T06:02:11;98274.38;;;16.59;77.40
77869;BME280;67231;59.144;37.934;2023-07-20T06:04:41;98283.47;;;16.58;76.81
77869;BME280;67231;59.144;37.934;2023-07-20T06:07:08;98284.50;;;16.57;77.17
77869;BME280;67231;59.144;37.934;2023-07-20T06:09:34;98276.91;;;16.66;77.15
77869;BME280;67231;59.144;37.934;2023-07-20T06:12:01;98279.34;;;16.67;76.58
77869;BME280;67231;59.144;37.934;2023-07-20T06:14:27;98292.66;;;16.62;76.43
77869;BME280;67231;59.144;37.934;2023-07-20T06:16:54;98278.91;;;16.59;76.62
77869;BME280;67231;59.144;37.934;2023-07-20T06:19:20;98274.94;;;16.61;76.59
77869;BME280;67231;59.144;37.934;2023-07-20T06:21:48;98276.78;;;16.72;76.71
77869;BME280;67231;59.144;37.934;2023-07-20T06:24:16;98280.06;;;16.74;75.97
77869;BME280;67231;59.144;37.934;2023-07-20T06:26:43;98285.41;;;16.74;75.69
77869;BME280;67231;59.144;37.934;2023-07-20T06:29:10;98287.41;;;16.79;75.62
77869;BME280;67231;59.144;37.934;2023-07-20T06:31:37;98289.38;;;16.84;75.96
77869;BME280;67231;59.144;37.934;2023-07-20T06:34:03;98289.97;;;16.86;75.70
77869;BME280;67231;59.144;37.934;2023-07-20T06:36:30;98293.00;;;16.89;75.80
77869;BME280;67231;59.144;37.934;2023-07-20T06:38:57;98289.75;;;16.87;75.88
77869;BME280;67231;59.144;37.934;2023-07-20T06:41:23;98290.06;;;16.91;75.50
77869;BME280;67231;59.144;37.934;2023-07-20T06:43:50;98295.91;;;16.88;75.21
77869;BME280;67231;59.144;37.934;2023-07-20T06:46:16;98302.91;;;16.89;75.38
77869;BME280;67231;59.144;37.934;2023-07-20T06:48:43;98310.00;;;16.95;75.03
77869;BME280;67231;59.144;37.934;2023-07-20T06:51:09;98299.53;;;16.93;75.10
77869;BME280;67231;59.144;37.934;2023-07-20T06:53:36;98302.91;;;16.89;75.08
77869;BME280;67231;59.144;37.934;2023-07-20T06:56:03;98300.09;;;16.84;74.82
77869;BME280;67231;59.144;37.934;2023-07-20T06:58:30;98309.16;;;16.83;75.09
77869;BME280;67231;59.144;37.934;2023-07-20T07:00:56;98306.47;;;16.83;75.33
77869;BME280;67231;59.144;37.934;2023-07-20T07:03:23;98309.06;;;16.78;75.26
77869;BME280;67231;59.144;37.934;2023-07-20T07:05:49;98323.97;;;16.73;75.63
77869;BME280;67231;59.144;37.934;2023-07-20T07:08:16;98320.25;;;16.74;75.53
77869;BME280;67231;59.144;37.934;2023-07-20T07:10:44;98320.59;;;16.78;75.46
77869;BME280;67231;59.144;37.934;2023-07-20T07:13:11;98326.66;;;16.85;75.15
77869;BME280;67231;59.144;37.934;2023-07-20T07:15:37;98322.22;;;16.91;75.28
77869;BME280;67231;59.144;37.934;2023-07-20T07:18:04;98320.72;;;16.95;75.45
77869;BME280;67231;59.144;37.934;2023-07-20T07:20:30;98308.94;;;16.96;74.69
77869;BME280;67231;59.144;37.934;2023-07-20T07:22:57;98319.50;;;17.03;74.52
77869;BME280;67231;59.144;37.934;2023-07-20T07:25:23;98329.41;;;17.14;74.60
77869;BME280;67231;59.144;37.934;2023-07-20T07:27:52;98324.72;;;17.21;74.32
77869;BME280;67231;59.144;37.934;2023-07-20T07:30:19;98320.78;;;17.24;74.38
77869;BME280;67231;59.144;37.934;2023-07-20T07:32:45;98316.53;;;17.28;74.67
77869;BME280;67231;59.144;37.934;2023-07-20T07:35:12;98331.22;;;17.37;74.14
77869;BME280;67231;59.144;37.934;2023-07-20T07:37:39;98317.34;;;17.40;73.83
77869;BME280;67231;59.144;37.934;2023-07-20T07:40:06;98312.53;;;17.42;73.68
77869;BME280;67231;59.144;37.934;2023-07-20T07:42:34;98329.56;;;17.36;73.52
77869;BME280;67231;59.144;37.934;2023-07-20T07:45:02;98341.59;;;17.34;73.30
77869;BME280;67231;59.144;37.934;2023-07-20T07:47:31;98331.78;;;17.39;73.66
77869;BME280;67231;59.144;37.934;2023-07-20T07:49:57;98336.53;;;17.49;73.55
77869;BME280;67231;59.144;37.934;2023-07-20T07:52:24;98330.94;;;17.51;73.21
77869;BME280;67231;59.144;37.934;2023-07-20T07:54:50;98326.03;;;17.47;73.53
77869;BME280;67231;59.144;37.934;2023-07-20T07:57:17;98342.59;;;17.44;73.18
77869;BME280;67231;59.144;37.934;2023-07-20T07:59:43;98345.03;;;17.46;73.43
77869;BME280;67231;59.144;37.934;2023-07-20T08:02:10;98320.72;;;17.64;72.91
77869;BME280;67231;59.144;37.934;2023-07-20T08:04:36;98323.81;;;17.73;72.65
77869;BME280;67231;59.144;37.934;2023-07-20T08:07:03;98344.56;;;17.78;72.46
77869;BME280;67231;59.144;37.934;2023-07-20T08:09:30;98332.66;;;17.86;72.47
77869;BME280;67231;59.144;37.934;2023-07-20T08:11:57;98343.72;;;17.89;72.09
77869;BME280;67231;59.144;37.934;2023-07-20T08:14:23;98346.19;;;17.91;72.16
77869;BME280;67231;59.144;37.934;2023-07-20T08:16:50;98346.03;;;17.97;71.93
77869;BME280;67231;59.144;37.934;2023-07-20T08:19:16;98357.59;;;17.98;71.67
77869;BME280;67231;59.144;37.934;2023-07-20T08:21:43;98354.50;;;18.06;71.64
77869;BME280;67231;59.144;37.934;2023-07-20T08:24:09;98348.50;;;18.33;70.86
77869;BME280;67231;59.144;37.934;2023-07-20T08:26:36;98359.25;;;18.50;70.34
77869;BME280;67231;59.144;37.934;2023-07-20T08:29:02;98362.25;;;18.53;70.27
77869;BME280;67231;59.144;37.934;2023-07-20T08:31:29;98363.47;;;18.63;70.13
77869;BME280;67231;59.144;37.934;2023-07-20T08:33:55;98354.50;;;18.74;70.00
77869;BME280;67231;59.144;37.934;2023-07-20T08:36:23;98363.06;;;18.88;69.63
77869;BME280;67231;59.144;37.934;2023-07-20T08:38:49;98361.56;;;18.97;69.17
77869;BME280;67231;59.144;37.934;2023-07-20T08:41:17;98360.50;;;18.98;68.58
77869;BME280;67231;59.144;37.934;2023-07-20T08:43:46;98361.16;;;19.05;68.49
77869;BME280;67231;59.144;37.934;2023-07-20T08:46:13;98353.56;;;19.24;67.71
77869;BME280;67231;59.144;37.934;2023-07-20T08:48:42;98343.56;;;19.42;67.33
77869;BME280;67231;59.144;37.934;2023-07-20T08:51:10;98349.50;;;19.66;67.26
77869;BME280;67231;59.144;37.934;2023-07-20T08:53:37;98344.84;;;19.83;66.19
77869;BME280;67231;59.144;37.934;2023-07-20T08:56:04;98345.28;;;19.97;65.94
77869;BME280;67231;59.144;37.934;2023-07-20T08:58:31;98359.28;;;19.99;65.72
77869;BME280;67231;59.144;37.934;2023-07-20T09:01:00;98355.31;;;20.07;65.73
77869;BME280;67231;59.144;37.934;2023-07-20T09:03:27;98353.53;;;20.18;65.63
77869;BME280;67231;59.144;37.934;2023-07-20T09:05:54;98371.56;;;20.17;65.22
77869;BME280;67231;59.144;37.934;2023-07-20T09:08:20;98359.91;;;20.07;64.83
77869;BME280;67231;59.144;37.934;2023-07-20T09:10:47;98354.53;;;20.07;64.87
77869;BME280;67231;59.144;37.934;2023-07-20T09:13:16;98363.22;;;20.19;64.53
77869;BME280;67231;59.144;37.934;2023-07-20T09:15:47;98362.94;;;20.15;64.53
77869;BME280;67231;59.144;37.934;2023-07-20T09:18:29;98352.44;;;20.19;64.34
77869;BME280;67231;59.144;37.934;2023-07-20T09:21:04;98358.09;;;20.50;64.51
77869;BME280;67231;59.144;37.934;2023-07-20T09:23:35;98354.97;;;20.63;63.75
77869;BME280;67231;59.144;37.934;2023-07-20T09:26:10;98346.97;;;20.73;63.15
77869;BME280;67231;59.144;37.934;2023-07-20T09:29:05;98360.03;;;20.92;62.95
77869;BME280;67231;59.144;37.934;2023-07-20T09:31:33;98352.47;;;20.89;62.53
77869;BME280;67231;59.144;37.934;2023-07-20T09:34:00;98356.78;;;20.90;62.73
77869;BME280;67231;59.144;37.934;2023-07-20T09:36:27;98354.13;;;21.00;62.18
77869;BME280;67231;59.144;37.934;2023-07-20T09:38:54;98353.63;;;21.03;62.15
77869;BME280;67231;59.144;37.934;2023-07-20T09:41:21;98354.22;;;21.16;62.19
77869;BME280;67231;59.144;37.934;2023-07-20T09:43:49;98348.88;;;21.31;61.63
77869;BME280;67231;59.144;37.934;2023-07-20T09:46:15;98341.75;;;21.73;61.15
77869;BME280;67231;59.144;37.934;2023-07-20T09:48:54;98344.75;;;21.81;59.82
77869;BME280;67231;59.144;37.934;2023-07-20T09:51:24;98350.16;;;21.97;59.93
77869;BME280;67231;59.144;37.934;2023-07-20T09:53:52;98350.69;;;21.99;57.80
77869;BME280;67231;59.144;37.934;2023-07-20T09:56:21;98353.44;;;22.04;57.55
77869;BME280;67231;59.144;37.934;2023-07-20T09:58:49;98358.28;;;22.23;56.77
77869;BME280;67231;59.144;37.934;2023-07-20T10:01:20;98353.72;;;22.23;56.37
77869;BME280;67231;59.144;37.934;2023-07-20T10:03:49;98354.00;;;22.32;55.57
77869;BME280;67231;59.144;37.934;2023-07-20T10:06:21;98351.03;;;22.33;55.50
77869;BME280;67231;59.144;37.934;2023-07-20T10:08:53;98354.00;;;22.22;55.05
77869;BME280;67231;59.144;37.934;2023-07-20T10:11:22;98365.31;;;21.93;56.74
77869;BME280;67231;59.144;37.934;2023-07-20T10:13:51;98375.25;;;21.72;58.43
77869;BME280;67231;59.144;37.934;2023-07-20T10:16:29;98373.81;;;21.49;59.44
77869;BME280;67231;59.144;37.934;2023-07-20T10:21:48;98369.25;;;21.01;60.84
77869;BME280;67231;59.144;37.934;2023-07-20T10:24:18;98375.88;;;20.83;60.96
77869;BME280;67231;59.144;37.934;2023-07-20T10:26:45;98375.56;;;20.74;61.30
77869;BME280;67231;59.144;37.934;2023-07-20T10:29:12;98363.75;;;20.86;60.45
77869;BME280;67231;59.144;37.934;2023-07-20T10:31:39;98374.06;;;20.99;60.06
77869;BME280;67231;59.144;37.934;2023-07-20T10:34:05;98379.59;;;21.25;59.07
77869;BME280;67231;59.144;37.934;2023-07-20T10:36:32;98372.22;;;21.58;58.00
77869;BME280;67231;59.144;37.934;2023-07-20T10:38:58;98387.38;;;21.74;58.37
77869;BME280;67231;59.144;37.934;2023-07-20T10:44:00;98395.16;;;21.55;59.22
77869;BME280;67231;59.144;37.934;2023-07-20T10:46:47;98399.13;;;21.47;60.04
77869;BME280;67231;59.144;37.934;2023-07-20T10:49:14;98395.34;;;21.38;59.99
77869;BME280;67231;59.144;37.934;2023-07-20T10:51:43;98394.75;;;21.31;60.20
77869;BME280;67231;59.144;37.934;2023-07-20T10:56:43;98406.06;;;21.28;60.69
77869;BME280;67231;59.144;37.934;2023-07-20T11:01:49;98401.72;;;20.47;62.11
77869;BME280;67231;59.144;37.934;2023-07-20T11:04:17;98405.22;;;20.15;63.15
77869;BME280;67231;59.144;37.934;2023-07-20T11:06:54;98405.41;;;19.81;64.14
77869;BME280;67231;59.144;37.934;2023-07-20T11:09:22;98412.41;;;19.60;64.91
77869;BME280;67231;59.144;37.934;2023-07-20T11:12:12;98413.59;;;19.47;64.81
77869;BME280;67231;59.144;37.934;2023-07-20T11:14:41;98414.69;;;19.29;65.17
77869;BME280;67231;59.144;37.934;2023-07-20T11:17:15;98407.00;;;19.16;66.25
77869;BME280;67231;59.144;37.934;2023-07-20T11:19:42;98420.78;;;19.02;66.63
77869;BME280;67231;59.144;37.934;2023-07-20T11:22:09;98420.94;;;18.96;66.26
77869;BME280;67231;59.144;37.934;2023-07-20T11:24:45;98429.31;;;18.82;66.99
77869;BME280;67231;59.144;37.934;2023-07-20T11:27:11;98448.19;;;18.53;67.98
77869;BME280;67231;59.144;37.934;2023-07-20T11:29:38;98444.13;;;18.05;70.17
77869;BME280;67231;59.144;37.934;2023-07-20T11:32:04;98440.25;;;17.72;71.81
77869;BME280;67231;59.144;37.934;2023-07-20T11:34:33;98449.03;;;17.56;72.79
77869;BME280;67231;59.144;37.934;2023-07-20T11:37:00;98458.50;;;17.46;73.59
77869;BME280;67231;59.144;37.934;2023-07-20T11:39:29;98456.28;;;17.43;73.68
77869;BME280;67231;59.144;37.934;2023-07-20T11:41:56;98444.13;;;17.53;73.95
77869;BME280;67231;59.144;37.934;2023-07-20T11:44:26;98450.16;;;17.72;73.93
77869;BME280;67231;59.144;37.934;2023-07-20T11:49:34;98438.34;;;18.25;72.45
77869;BME280;67231;59.144;37.934;2023-07-20T11:52:01;98445.59;;;18.42;71.57
77869;BME280;67231;59.144;37.934;2023-07-20T11:54:28;98464.47;;;18.47;71.24
77869;BME280;67231;59.144;37.934;2023-07-20T11:56:55;98459.25;;;18.40;71.04
77869;BME280;67231;59.144;37.934;2023-07-20T11:59:22;98454.94;;;18.39;70.82
77869;BME280;67231;59.144;37.934;2023-07-20T12:01:48;98450.78;;;18.31;70.84
77869;BME280;67231;59.144;37.934;2023-07-20T12:04:15;98451.00;;;18.30;70.50
77869;BME280;67231;59.144;37.934;2023-07-20T12:06:42;98457.09;;;18.54;70.20
77869;BME280;67231;59.144;37.934;2023-07-20T12:09:14;98461.44;;;18.89;69.50
77869;BME280;67231;59.144;37.934;2023-07-20T12:11:43;98462.00;;;19.08;68.51
77869;BME280;67231;59.144;37.934;2023-07-20T12:14:12;98459.53;;;19.23;68.02
77869;BME280;67231;59.144;37.934;2023-07-20T12:16:38;98467.00;;;19.38;67.58
77869;BME280;67231;59.144;37.934;2023-07-20T12:19:06;98466.97;;;19.55;67.23
77869;BME280;67231;59.144;37.934;2023-07-20T12:21:38;98461.50;;;19.72;66.74
77869;BME280;67231;59.144;37.934;2023-07-20T12:24:06;98470.34;;;19.68;66.69
77869;BME280;67231;59.144;37.934;2023-07-20T12:26:35;98462.34;;;19.73;66.13
77869;BME280;67231;59.144;37.934;2023-07-20T12:29:02;98465.59;;;19.75;66.25
77869;BME280;67231;59.144;37.934;2023-07-20T12:31:30;98469.34;;;19.74;66.00
77869;BME280;67231;59.144;37.934;2023-07-20T12:33:57;98469.03;;;19.70;65.64
77869;BME280;67231;59.144;37.934;2023-07-20T12:36:24;98467.88;;;19.66;65.70
77869;BME280;67231;59.144;37.934;2023-07-20T12:38:51;98469.22;;;19.63;65.73
77869;BME280;67231;59.144;37.934;2023-07-20T12:41:18;98478.50;;;19.73;65.63
77869;BME280;67231;59.144;37.934;2023-07-20T12:43:45;98467.38;;;19.86;65.03
77869;BME280;67231;59.144;37.934;2023-07-20T12:46:13;98468.63;;;20.00;64.59
77869;BME280;67231;59.144;37.934;2023-07-20T12:48:41;98473.53;;;20.09;63.51
77869;BME280;67231;59.144;37.934;2023-07-20T12:51:09;98474.00;;;20.00;63.79
77869;BME280;67231;59.144;37.934;2023-07-20T12:53:37;98476.00;;;19.88;64.12
77869;BME280;67231;59.144;37.934;2023-07-20T12:56:03;98474.56;;;19.80;63.18
77869;BME280;67231;59.144;37.934;2023-07-20T12:58:30;98493.16;;;19.82;63.14
77869;BME280;67231;59.144;37.934;2023-07-20T13:00:57;98471.63;;;19.82;63.06
77869;BME280;67231;59.144;37.934;2023-07-20T13:03:23;98469.34;;;19.74;62.98
77869;BME280;67231;59.144;37.934;2023-07-20T13:05:50;98474.47;;;19.75;63.31
77869;BME280;67231;59.144;37.934;2023-07-20T13:08:16;98477.84;;;19.82;63.31
77869;BME280;67231;59.144;37.934;2023-07-20T13:10:44;98477.09;;;19.87;61.76
77869;BME280;67231;59.144;37.934;2023-07-20T13:13:10;98475.69;;;19.85;62.08